sensor_id;sensor_type;location;lat;lon;timestamp;pressure;altitude;pressure_sealevel;temperature;humidity
46690;BME280;32423;45.398;10.874;2023-01-05T00:00:19;101777.72;;;10.70;76.38
46690;BME280;32423;45.398;10.874;2023-01-05T00:03:03;101780.59;;;10.55;77.14
46690;BME280;32423;45.398;10.874;2023-01-05T00:05:48;101775.59;;;10.62;76.65
46690;BME280;32423;45.398;10.874;2023-01-05T00:08:32;101775.88;;;10.65;76.35
46690;BME280;32423;45.398;10.874;2023-01-05T00:11:18;101778.75;;;10.74;75.64
46690;BME280;32423;45.398;10.874;2023-01-05T00:14:23;101782.22;;;10.80;75.06
46690;BME280;32423;45.398;10.874;2023-01-05T00:17:27;101775.00;;;10.70;74.75
46690;BME280;32423;45.398;10.874;2023-01-05T00:20:30;101772.00;;;10.43;75.54
46690;BME280;32423;45.398;10.874;2023-01-05T00:23:33;101759.13;;;10.29;76.41
46690;BME280;32423;45.398;10.874;2023-01-05T00:26:18;101761.94;;;10.43;76.46
46690;BME280;32423;45.398;10.874;2023-01-05T00:29:03;101755.16;;;10.46;76.20
46690;BME280;32423;45.398;10.874;2023-01-05T00:31:47;101756.72;;;10.23;76.40
46690;BME280;32423;45.398;10.874;2023-01-05T00:34:32;101756.13;;;10.26;77.26
46690;BME280;32423;45.398;10.874;2023-01-05T00:37:16;101753.41;;;10.55;76.46
46690;BME280;32423;45.398;10.874;2023-01-05T00:40:01;101748.88;;;10.69;75.68
46690;BME280;32423;45.398;10.874;2023-01-05T00:42:45;101756.03;;;10.84;75.00
46690;BME280;32423;45.398;10.874;2023-01-05T00:45:30;101750.56;;;10.65;75.30
46690;BME280;32423;45.398;10.874;2023-01-05T00:48:15;101743.91;;;10.52;75.72
46690;BME280;32423;45.398;10.874;2023-01-05T00:50:59;101737.31;;;10.58;75.48
46690;BME280;32423;45.398;10.874;2023-01-05T00:53:44;101739.06;;;10.49;75.89
46690;BME280;32423;45.398;10.874;2023-01-05T00:56:30;101733.38;;;10.46;75.94
46690;BME280;32423;45.398;10.874;2023-01-05T00:59:15;101727.53;;;10.34;76.11
46690;BME280;32423;45.398;10.874;2023-01-05T01:02:00;101731.00;;;10.39;76.16
46690;BME280;32423;45.398;10.874;2023-01-05T01:04:45;101736.88;;;10.51;75.94
46690;BME280;32423;45.398;10.874;2023-01-05T01:07:29;101734.81;;;10.62;75.41
46690;BME280;32423;45.398;10.874;2023-01-05T01:10:14;101733.16;;;10.66;75.06
46690;BME280;32423;45.398;10.874;2023-01-05T01:12:58;101724.47;;;10.64;75.35
46690;BME280;32423;45.398;10.874;2023-01-05T01:15:42;101732.09;;;10.62;75.73
46690;BME280;32423;45.398;10.874;2023-01-05T01:18:28;101721.81;;;10.59;75.85
46690;BME280;32423;45.398;10.874;2023-01-05T01:21:12;101726.16;;;10.60;75.94
46690;BME280;32423;45.398;10.874;2023-01-05T01:23:57;101717.41;;;10.39;76.75
46690;BME280;32423;45.398;10.874;2023-01-05T01:26:41;101720.53;;;10.27;77.29
46690;BME280;32423;45.398;10.874;2023-01-05T01:29:25;101723.13;;;10.38;77.24
46690;BME280;32423;45.398;10.874;2023-01-05T01:32:10;101722.03;;;10.39;76.91
46690;BME280;32423;45.398;10.874;2023-01-05T01:34:54;101719.84;;;10.41;77.33
46690;BME280;32423;45.398;10.874;2023-01-05T01:37:39;101717.84;;;10.22;77.68
46690;BME280;32423;45.398;10.874;2023-01-05T01:40:24;101713.56;;;10.16;78.19
46690;BME280;32423;45.398;10.874;2023-01-05T01:43:12;101719.00;;;10.16;78.00
46690;BME280;32423;45.398;10.874;2023-01-05T01:45:57;101705.34;;;10.21;78.08
46690;BME280;32423;45.398;10.874;2023-01-05T01:48:43;101705.25;;;10.32;78.04
46690;BME280;32423;45.398;10.874;2023-01-05T01:51:31;101708.38;;;10.20;77.40
46690;BME280;32423;45.398;10.874;2023-01-05T01:54:16;101704.69;;;10.35;77.02
46690;BME280;32423;45.398;10.874;2023-01-05T01:57:01;101709.31;;;10.34;77.07
46690;BME280;32423;45.398;10.874;2023-01-05T01:59:47;101707.00;;;10.22;77.69
46690;BME280;32423;45.398;10.874;2023-01-05T02:02:31;101701.44;;;10.33;77.12
46690;BME280;32423;45.398;10.874;2023-01-05T02:05:16;101692.25;;;10.28;77.14
46690;BME280;32423;45.398;10.874;2023-01-05T02:08:03;101692.63;;;9.88;78.12
46690;BME280;32423;45.398;10.874;2023-01-05T02:10:54;101682.72;;;10.02;78.93
46690;BME280;32423;45.398;10.874;2023-01-05T02:36:57;101642.19;;;10.06;78.90
46690;BME280;32423;45.398;10.874;2023-01-05T02:39:51;101637.00;;;10.33;78.15
46690;BME280;32423;45.398;10.874;2023-01-05T02:42:36;101643.03;;;10.30;77.82
46690;BME280;32423;45.398;10.874;2023-01-05T02:45:22;101628.91;;;10.28;78.04
46690;BME280;32423;45.398;10.874;2023-01-05T02:48:11;101630.81;;;10.27;78.12
46690;BME280;32423;45.398;10.874;2023-01-05T02:50:57;101626.78;;;10.25;78.08
46690;BME280;32423;45.398;10.874;2023-01-05T02:53:46;101622.22;;;10.20;78.51
46690;BME280;32423;45.398;10.874;2023-01-05T02:56:35;101621.03;;;10.26;78.81
46690;BME280;32423;45.398;10.874;2023-01-05T02:59:23;101611.09;;;10.17;79.15
46690;BME280;32423;45.398;10.874;2023-01-05T03:02:18;101612.44;;;10.19;78.99
46690;BME280;32423;45.398;10.874;2023-01-05T03:05:07;101605.31;;;10.23;79.29
46690;BME280;32423;45.398;10.874;2023-01-05T03:07:54;101602.97;;;10.12;79.17
46690;BME280;32423;45.398;10.874;2023-01-05T03:10:58;101597.31;;;10.08;79.71
46690;BME280;32423;45.398;10.874;2023-01-05T03:16:47;101583.00;;;9.79;81.46
46690;BME280;32423;45.398;10.874;2023-01-05T03:19:33;101577.56;;;9.79;81.99
46690;BME280;32423;45.398;10.874;2023-01-05T03:22:29;101572.53;;;9.67;82.81
46690;BME280;32423;45.398;10.874;2023-01-05T03:25:33;101573.38;;;9.63;83.19
46690;BME280;32423;45.398;10.874;2023-01-05T03:28:43;101564.38;;;9.67;82.91
46690;BME280;32423;45.398;10.874;2023-01-05T03:32:04;101561.19;;;9.60;83.07
46690;BME280;32423;45.398;10.874;2023-01-05T03:35:10;101556.16;;;9.72;82.41
46690;BME280;32423;45.398;10.874;2023-01-05T03:41:09;101557.91;;;9.87;82.01
46690;BME280;32423;45.398;10.874;2023-01-05T03:43:58;101552.94;;;9.94;81.57
46690;BME280;32423;45.398;10.874;2023-01-05T03:46:43;101552.13;;;9.94;81.64
46690;BME280;32423;45.398;10.874;2023-01-05T03:49:27;101542.56;;;9.96;80.87
46690;BME280;32423;45.398;10.874;2023-01-05T03:52:12;101543.31;;;10.02;80.68
46690;BME280;32423;45.398;10.874;2023-01-05T03:54:59;101540.31;;;10.03;80.50
46690;BME280;32423;45.398;10.874;2023-01-05T03:57:44;101527.91;;;9.97;80.38
46690;BME280;32423;45.398;10.874;2023-01-05T04:00:30;101532.22;;;9.98;80.59
46690;BME280;32423;45.398;10.874;2023-01-05T04:03:21;101527.63;;;9.99;80.29
46690;BME280;32423;45.398;10.874;2023-01-05T04:06:06;101536.31;;;9.96;79.94
46690;BME280;32423;45.398;10.874;2023-01-05T04:08:53;101538.25;;;9.95;80.12
46690;BME280;32423;45.398;10.874;2023-01-05T04:11:38;101528.56;;;10.08;79.53
46690;BME280;32423;45.398;10.874;2023-01-05T04:14:24;101532.28;;;10.17;79.19
46690;BME280;32423;45.398;10.874;2023-01-05T04:17:09;101528.19;;;9.96;79.73
46690;BME280;32423;45.398;10.874;2023-01-05T04:19:56;101534.94;;;9.98;79.97
46690;BME280;32423;45.398;10.874;2023-01-05T04:22:40;101526.59;;;9.95;80.57
46690;BME280;32423;45.398;10.874;2023-01-05T04:25:26;101532.97;;;10.04;80.15
46690;BME280;32423;45.398;10.874;2023-01-05T04:28:11;101529.66;;;9.88;80.62
46690;BME280;32423;45.398;10.874;2023-01-05T04:30:56;101543.13;;;9.74;81.18
46690;BME280;32423;45.398;10.874;2023-01-05T04:33:42;101535.25;;;9.73;81.25
46690;BME280;32423;45.398;10.874;2023-01-05T04:36:30;101541.56;;;9.68;81.58
46690;BME280;32423;45.398;10.874;2023-01-05T04:39:16;101545.66;;;9.66;82.08
46690;BME280;32423;45.398;10.874;2023-01-05T04:42:01;101531.94;;;9.76;81.59
46690;BME280;32423;45.398;10.874;2023-01-05T04:44:46;101536.97;;;9.87;81.36
46690;BME280;32423;45.398;10.874;2023-01-05T04:47:30;101535.34;;;9.86;81.09
46690;BME280;32423;45.398;10.874;2023-01-05T04:50:17;101531.63;;;10.01;80.95
46690;BME280;32423;45.398;10.874;2023-01-05T04:53:02;101523.53;;;9.77;81.32
46690;BME280;32423;45.398;10.874;2023-01-05T04:55:48;101529.13;;;9.86;81.87
46690;BME280;32423;45.398;10.874;2023-01-05T04:58:32;101526.34;;;9.91;80.91
46690;BME280;32423;45.398;10.874;2023-01-05T05:01:17;101532.94;;;9.85;82.09
46690;BME280;32423;45.398;10.874;2023-01-05T05:04:06;101515.09;;;9.79;82.11
46690;BME280;32423;45.398;10.874;2023-01-05T05:06:51;101528.47;;;9.70;82.99
46690;BME280;32423;45.398;10.874;2023-01-05T05:09:36;101519.44;;;9.80;82.70
46690;BME280;32423;45.398;10.874;2023-01-05T05:12:21;101514.56;;;9.77;82.78
46690;BME280;32423;45.398;10.874;2023-01-05T05:15:08;101521.91;;;9.76;82.54
46690;BME280;32423;45.398;10.874;2023-01-05T05:17:53;101523.63;;;9.91;82.11
46690;BME280;32423;45.398;10.874;2023-01-05T05:20:37;101529.75;;;9.78;82.52
46690;BME280;32423;45.398;10.874;2023-01-05T05:23:24;101529.81;;;9.73;82.62
46690;BME280;32423;45.398;10.874;2023-01-05T05:26:09;101534.72;;;9.71;82.69
46690;BME280;32423;45.398;10.874;2023-01-05T05:28:54;101531.50;;;9.69;nan
46690;BME280;32423;45.398;10.874;2023-01-05T05:31:40;101537.69;;;9.74;83.11
46690;BME280;32423;45.398;10.874;2023-01-05T05:34:25;101534.28;;;9.64;82.91
46690;BME280;32423;45.398;10.874;2023-01-05T05:37:09;101535.44;;;9.58;83.08
46690;BME280;32423;45.398;10.874;2023-01-05T05:39:54;101534.91;;;9.56;83.75
46690;BME280;32423;45.398;10.874;2023-01-05T05:42:38;101526.00;;;9.50;83.18
46690;BME280;32423;45.398;10.874;2023-01-05T05:45:23;101519.25;;;9.48;83.08
46690;BME280;32423;45.398;10.874;2023-01-05T05:48:07;101529.53;;;9.51;83.31
46690;BME280;32423;45.398;10.874;2023-01-05T05:50:51;101527.06;;;9.54;82.62
46690;BME280;32423;45.398;10.874;2023-01-05T05:53:36;101530.88;;;9.53;82.57
46690;BME280;32423;45.398;10.874;2023-01-05T05:56:21;101525.22;;;9.50;82.90
46690;BME280;32423;45.398;10.874;2023-01-05T05:59:06;101532.59;;;9.44;82.86
46690;BME280;32423;45.398;10.874;2023-01-05T06:01:50;101520.28;;;9.52;82.60
46690;BME280;32423;45.398;10.874;2023-01-05T06:04:35;101525.44;;;9.53;82.66
46690;BME280;32423;45.398;10.874;2023-01-05T06:07:19;101543.84;;;9.56;82.50
46690;BME280;32423;45.398;10.874;2023-01-05T06:10:04;101540.31;;;9.56;82.31
46690;BME280;32423;45.398;10.874;2023-01-05T06:12:49;101537.91;;;9.54;82.63
46690;BME280;32423;45.398;10.874;2023-01-05T06:15:33;101530.97;;;9.43;82.87
46690;BME280;32423;45.398;10.874;2023-01-05T06:18:17;101528.38;;;9.57;83.52
46690;BME280;32423;45.398;10.874;2023-01-05T06:21:02;101526.34;;;9.43;83.02
46690;BME280;32423;45.398;10.874;2023-01-05T06:23:46;101526.41;;;9.38;83.63
46690;BME280;32423;45.398;10.874;2023-01-05T06:26:31;101524.84;;;9.32;83.85
46690;BME280;32423;45.398;10.874;2023-01-05T06:29:16;101520.22;;;9.33;84.20
46690;BME280;32423;45.398;10.874;2023-01-05T06:32:00;101522.44;;;9.26;84.83
46690;BME280;32423;45.398;10.874;2023-01-05T06:34:44;101511.31;;;9.27;84.89
46690;BME280;32423;45.398;10.874;2023-01-05T06:37:28;101509.47;;;9.23;85.16
46690;BME280;32423;45.398;10.874;2023-01-05T06:40:13;101510.84;;;9.20;85.44
46690;BME280;32423;45.398;10.874;2023-01-05T06:42:57;101505.41;;;9.20;86.00
46690;BME280;32423;45.398;10.874;2023-01-05T06:45:42;101509.13;;;9.29;85.31
46690;BME280;32423;45.398;10.874;2023-01-05T06:48:27;101504.75;;;9.33;85.37
46690;BME280;32423;45.398;10.874;2023-01-05T06:51:11;101507.41;;;9.38;85.34
46690;BME280;32423;45.398;10.874;2023-01-05T06:53:56;101499.22;;;9.43;84.99
46690;BME280;32423;45.398;10.874;2023-01-05T06:56:40;101492.25;;;9.56;84.21
46690;BME280;32423;45.398;10.874;2023-01-05T06:59:25;101496.53;;;9.62;84.23
46690;BME280;32423;45.398;10.874;2023-01-05T07:02:12;101493.19;;;9.70;84.21
46690;BME280;32423;45.398;10.874;2023-01-05T07:04:57;101500.91;;;9.82;84.09
46690;BME280;32423;45.398;10.874;2023-01-05T07:07:41;101495.28;;;9.78;83.43
46690;BME280;32423;45.398;10.874;2023-01-05T07:10:26;101501.94;;;9.86;82.88
46690;BME280;32423;45.398;10.874;2023-01-05T07:13:11;101502.94;;;9.95;82.94
46690;BME280;32423;45.398;10.874;2023-01-05T07:15:55;101500.78;;;9.92;82.81
46690;BME280;32423;45.398;10.874;2023-01-05T07:18:42;101502.06;;;10.00;82.66
46690;BME280;32423;45.398;10.874;2023-01-05T07:21:26;101508.38;;;9.95;81.88
46690;BME280;32423;45.398;10.874;2023-01-05T07:24:11;101518.31;;;10.05;78.95
46690;BME280;32423;45.398;10.874;2023-01-05T07:26:56;101513.34;;;9.88;77.12
46690;BME280;32423;45.398;10.874;2023-01-05T07:29:41;101516.88;;;9.88;76.42
46690;BME280;32423;45.398;10.874;2023-01-05T07:32:25;101506.44;;;9.96;75.27
46690;BME280;32423;45.398;10.874;2023-01-05T07:35:10;101508.06;;;9.97;74.70
46690;BME280;32423;45.398;10.874;2023-01-05T07:37:54;101510.34;;;9.90;74.95
46690;BME280;32423;45.398;10.874;2023-01-05T07:40:39;101514.91;;;9.94;73.94
46690;BME280;32423;45.398;10.874;2023-01-05T07:43:23;101517.22;;;9.82;74.20
46690;BME280;32423;45.398;10.874;2023-01-05T07:46:08;101515.09;;;9.79;74.32
46690;BME280;32423;45.398;10.874;2023-01-05T07:48:52;101505.53;;;9.81;74.28
46690;BME280;32423;45.398;10.874;2023-01-05T07:51:37;101514.00;;;9.80;74.30
46690;BME280;32423;45.398;10.874;2023-01-05T07:54:22;101510.34;;;9.66;73.79
46690;BME280;32423;45.398;10.874;2023-01-05T07:57:06;101513.47;;;9.78;74.25
46690;BME280;32423;45.398;10.874;2023-01-05T07:59:50;101504.97;;;9.84;72.52
46690;BME280;32423;45.398;10.874;2023-01-05T08:02:35;101511.47;;;9.65;71.88
46690;BME280;32423;45.398;10.874;2023-01-05T08:05:20;101515.31;;;9.82;72.53
46690;BME280;32423;45.398;10.874;2023-01-05T08:08:04;101513.88;;;9.66;71.74
46690;BME280;32423;45.398;10.874;2023-01-05T08:10:49;101519.31;;;9.66;71.59
46690;BME280;32423;45.398;10.874;2023-01-05T08:13:33;101510.94;;;9.63;72.27
46690;BME280;32423;45.398;10.874;2023-01-05T08:16:37;101513.88;;;9.66;72.67
46690;BME280;32423;45.398;10.874;2023-01-05T08:19:21;101517.88;;;9.74;71.87
46690;BME280;32423;45.398;10.874;2023-01-05T08:22:05;101522.72;;;9.77;72.09
46690;BME280;32423;45.398;10.874;2023-01-05T08:24:50;101511.22;;;9.85;71.85
46690;BME280;32423;45.398;10.874;2023-01-05T08:27:35;101511.72;;;9.87;71.56
46690;BME280;32423;45.398;10.874;2023-01-05T08:30:19;101510.91;;;9.86;70.89
46690;BME280;32423;45.398;10.874;2023-01-05T08:33:04;101511.09;;;9.95;70.73
46690;BME280;32423;45.398;10.874;2023-01-05T08:35:49;101507.84;;;9.93;69.96
46690;BME280;32423;45.398;10.874;2023-01-05T08:38:33;101506.69;;;9.75;71.54
46690;BME280;32423;45.398;10.874;2023-01-05T08:41:20;101509.16;;;9.53;72.29
46690;BME280;32423;45.398;10.874;2023-01-05T08:44:06;101512.84;;;9.62;71.80
46690;BME280;32423;45.398;10.874;2023-01-05T08:46:51;101517.56;;;9.75;71.22
46690;BME280;32423;45.398;10.874;2023-01-05T08:49:36;101504.72;;;9.81;71.00
46690;BME280;32423;45.398;10.874;2023-01-05T08:52:20;101518.50;;;9.90;70.87
46690;BME280;32423;45.398;10.874;2023-01-05T08:55:06;101508.66;;;9.94;71.56
46690;BME280;32423;45.398;10.874;2023-01-05T08:57:51;101517.69;;;9.89;71.70
46690;BME280;32423;45.398;10.874;2023-01-05T09:00:35;101514.59;;;9.96;71.74
46690;BME280;32423;45.398;10.874;2023-01-05T09:03:20;101518.13;;;9.96;71.98
46690;BME280;32423;45.398;10.874;2023-01-05T09:06:08;101518.06;;;10.01;72.49
46690;BME280;32423;45.398;10.874;2023-01-05T09:08:55;101508.13;;;9.92;73.20
46690;BME280;32423;45.398;10.874;2023-01-05T09:11:39;101516.66;;;9.85;73.88
46690;BME280;32423;45.398;10.874;2023-01-05T09:14:24;101519.31;;;9.90;74.14
46690;BME280;32423;45.398;10.874;2023-01-05T09:17:08;101516.88;;;9.88;74.87
46690;BME280;32423;45.398;10.874;2023-01-05T09:19:53;101515.84;;;9.84;76.77
46690;BME280;32423;45.398;10.874;2023-01-05T09:22:37;101512.81;;;9.86;77.25
46690;BME280;32423;45.398;10.874;2023-01-05T09:25:22;101510.09;;;9.86;78.47
46690;BME280;32423;45.398;10.874;2023-01-05T09:28:06;101510.16;;;9.81;79.71
46690;BME280;32423;45.398;10.874;2023-01-05T09:30:51;101513.19;;;9.79;80.00
46690;BME280;32423;45.398;10.874;2023-01-05T09:33:35;101519.47;;;9.99;79.96
46690;BME280;32423;45.398;10.874;2023-01-05T09:36:19;101515.06;;;10.03;80.47
46690;BME280;32423;45.398;10.874;2023-01-05T09:39:04;101516.72;;;10.22;80.29
46690;BME280;32423;45.398;10.874;2023-01-05T09:41:50;101521.81;;;10.29;79.85
46690;BME280;32423;45.398;10.874;2023-01-05T09:44:38;101512.09;;;10.42;80.16
46690;BME280;32423;45.398;10.874;2023-01-05T09:50:19;101512.09;;;10.42;79.90
46690;BME280;32423;45.398;10.874;2023-01-05T09:53:04;101512.09;;;10.42;80.54
46690;BME280;32423;45.398;10.874;2023-01-05T09:55:49;101504.91;;;10.32;81.19
46690;BME280;32423;45.398;10.874;2023-01-05T09:58:35;101500.50;;;10.36;81.10
46690;BME280;32423;45.398;10.874;2023-01-05T10:01:22;101503.56;;;10.48;81.72
46690;BME280;32423;45.398;10.874;2023-01-05T10:04:11;101497.72;;;10.41;81.57
46690;BME280;32423;45.398;10.874;2023-01-05T10:06:59;101493.66;;;10.39;83.29
46690;BME280;32423;45.398;10.874;2023-01-05T10:09:45;101487.03;;;10.45;83.30
46690;BME280;32423;45.398;10.874;2023-01-05T10:12:34;101487.25;;;10.48;84.06
46690;BME280;32423;45.398;10.874;2023-01-05T10:15:49;101477.91;;;10.54;82.73
46690;BME280;32423;45.398;10.874;2023-01-05T10:18:35;101474.47;;;10.49;83.18
46690;BME280;32423;45.398;10.874;2023-01-05T10:21:30;101472.47;;;10.54;83.93
46690;BME280;32423;45.398;10.874;2023-01-05T10:24:20;101471.63;;;10.72;83.59
46690;BME280;32423;45.398;10.874;2023-01-05T10:32:59;101469.63;;;10.46;83.84
46690;BME280;32423;45.398;10.874;2023-01-05T10:44:40;101461.44;;;10.64;82.65
46690;BME280;32423;45.398;10.874;2023-01-05T10:47:31;101453.00;;;10.47;82.07
46690;BME280;32423;45.398;10.874;2023-01-05T10:53:08;101446.25;;;10.77;82.19
46690;BME280;32423;45.398;10.874;2023-01-05T10:59:08;101436.88;;;10.69;82.61
46690;BME280;32423;45.398;10.874;2023-01-05T11:01:53;101442.59;;;10.68;82.10
46690;BME280;32423;45.398;10.874;2023-01-05T11:04:38;101447.56;;;10.66;82.08
46690;BME280;32423;45.398;10.874;2023-01-05T11:07:29;101442.56;;;10.54;82.41
46690;BME280;32423;45.398;10.874;2023-01-05T11:16:28;101435.31;;;10.50;82.87
46690;BME280;32423;45.398;10.874;2023-01-05T11:19:16;101431.50;;;10.51;82.60
46690;BME280;32423;45.398;10.874;2023-01-05T11:22:01;101429.50;;;10.38;81.95
46690;BME280;32423;45.398;10.874;2023-01-05T11:24:46;101429.75;;;10.41;81.64
46690;BME280;32423;45.398;10.874;2023-01-05T11:27:34;101427.69;;;10.33;82.67
46690;BME280;32423;45.398;10.874;2023-01-05T11:30:20;101413.13;;;10.05;83.80
46690;BME280;32423;45.398;10.874;2023-01-05T11:33:11;101423.56;;;9.79;84.94
46690;BME280;32423;45.398;10.874;2023-01-05T11:35:57;101409.38;;;10.01;84.05
46690;BME280;32423;45.398;10.874;2023-01-05T11:38:42;101408.94;;;9.94;84.72
46690;BME280;32423;45.398;10.874;2023-01-05T11:41:26;101402.03;;;10.39;82.72
46690;BME280;32423;45.398;10.874;2023-01-05T11:44:16;101396.53;;;10.58;81.87
46690;BME280;32423;45.398;10.874;2023-01-05T11:47:03;101399.31;;;10.71;81.10
46690;BME280;32423;45.398;10.874;2023-01-05T11:49:48;101395.81;;;10.98;80.13
46690;BME280;32423;45.398;10.874;2023-01-05T11:52:41;101396.13;;;10.97;79.97
46690;BME280;32423;45.398;10.874;2023-01-05T11:58:16;101382.19;;;10.71;80.38
46690;BME280;32423;45.398;10.874;2023-01-05T12:01:21;101387.00;;;10.74;80.94
46690;BME280;32423;45.398;10.874;2023-01-05T12:09:51;101378.06;;;11.14;77.72
46690;BME280;32423;45.398;10.874;2023-01-05T12:15:49;101377.88;;;11.25;77.54
46690;BME280;32423;45.398;10.874;2023-01-05T12:21:26;101357.31;;;11.32;77.42
46690;BME280;32423;45.398;10.874;2023-01-05T12:44:31;101363.56;;;12.71;71.20
46690;BME280;32423;45.398;10.874;2023-01-05T12:47:35;101350.31;;;13.26;69.24
46690;BME280;32423;45.398;10.874;2023-01-05T12:53:24;101339.91;;;13.63;68.01
46690;BME280;32423;45.398;10.874;2023-01-05T12:56:29;101341.06;;;13.79;67.53
46690;BME280;32423;45.398;10.874;2023-01-05T12:59:16;101335.38;;;12.84;69.23
46690;BME280;32423;45.398;10.874;2023-01-05T13:02:15;101320.34;;;12.34;72.51
46690;BME280;32423;45.398;10.874;2023-01-05T13:08:12;101329.31;;;12.65;71.55
46690;BME280;32423;45.398;10.874;2023-01-05T13:11:02;101323.97;;;12.91;70.47
46690;BME280;32423;45.398;10.874;2023-01-05T13:13:51;101323.97;;;12.91;70.11
46690;BME280;32423;45.398;10.874;2023-01-05T13:16:38;101317.59;;;12.65;70.61
46690;BME280;32423;45.398;10.874;2023-01-05T13:19:27;101323.66;;;14.18;64.84
46690;BME280;32423;45.398;10.874;2023-01-05T13:22:24;101317.19;;;15.54;59.94
46690;BME280;32423;45.398;10.874;2023-01-05T13:25:19;101323.59;;;17.01;55.53
46690;BME280;32423;45.398;10.874;2023-01-05T13:28:04;101325.69;;;17.57;54.08
46690;BME280;32423;45.398;10.874;2023-01-05T13:31:00;101319.28;;;18.79;49.46
46690;BME280;32423;45.398;10.874;2023-01-05T13:54:05;101315.06;;;20.25;44.72
46690;BME280;32423;45.398;10.874;2023-01-05T13:56:53;101307.47;;;19.80;45.42
46690;BME280;32423;45.398;10.874;2023-01-05T13:59:38;101312.81;;;20.54;44.17
46690;BME280;32423;45.398;10.874;2023-01-05T14:05:15;101318.84;;;21.31;42.24
46690;BME280;32423;45.398;10.874;2023-01-05T14:08:02;101303.81;;;19.95;45.23
46690;BME280;32423;45.398;10.874;2023-01-05T14:22:21;101330.56;;;18.43;49.79
46690;BME280;32423;45.398;10.874;2023-01-05T14:34:01;101325.88;;;20.15;44.30
46690;BME280;32423;45.398;10.874;2023-01-05T14:39:42;101333.50;;;19.44;46.21
46690;BME280;32423;45.398;10.874;2023-01-05T14:42:33;101327.72;;;18.55;48.13
46690;BME280;32423;45.398;10.874;2023-01-05T14:45:21;101327.00;;;17.47;50.97
46690;BME280;32423;45.398;10.874;2023-01-05T14:48:22;101331.19;;;18.52;49.15
46690;BME280;32423;45.398;10.874;2023-01-05T14:53:57;101325.81;;;17.72;50.77
46690;BME280;32423;45.398;10.874;2023-01-05T14:56:42;101326.94;;;17.71;51.45
46690;BME280;32423;45.398;10.874;2023-01-05T14:59:47;101336.47;;;17.37;52.62
46690;BME280;32423;45.398;10.874;2023-01-05T15:02:33;101325.88;;;16.75;54.45
46690;BME280;32423;45.398;10.874;2023-01-05T15:05:21;101331.25;;;16.39;54.90
46690;BME280;32423;45.398;10.874;2023-01-05T15:11:10;101333.66;;;13.62;63.68
46690;BME280;32423;45.398;10.874;2023-01-05T15:23:10;101341.16;;;12.30;70.23
46690;BME280;32423;45.398;10.874;2023-01-05T15:29:04;101337.16;;;11.83;72.29
46690;BME280;32423;45.398;10.874;2023-01-05T15:31:57;101339.16;;;11.64;73.66
46690;BME280;32423;45.398;10.874;2023-01-05T15:37:51;101334.50;;;11.28;75.30
46690;BME280;32423;45.398;10.874;2023-01-05T15:40:36;101347.03;;;11.15;76.21
46690;BME280;32423;45.398;10.874;2023-01-05T15:43:21;101348.44;;;11.13;76.32
46690;BME280;32423;45.398;10.874;2023-01-05T15:46:05;101345.72;;;10.99;76.69
46690;BME280;32423;45.398;10.874;2023-01-05T15:48:50;101348.44;;;10.86;77.07
46690;BME280;32423;45.398;10.874;2023-01-05T15:51:36;101359.41;;;10.94;76.92
46690;BME280;32423;45.398;10.874;2023-01-05T15:54:22;101352.66;;;10.78;77.28
46690;BME280;32423;45.398;10.874;2023-01-05T15:57:17;101363.63;;;10.73;77.74
46690;BME280;32423;45.398;10.874;2023-01-05T16:00:13;101360.13;;;10.86;80.30
46690;BME280;32423;45.398;10.874;2023-01-05T16:02:58;101353.34;;;11.38;79.00
46690;BME280;32423;45.398;10.874;2023-01-05T16:05:43;101359.25;;;11.68;77.26
46690;BME280;32423;45.398;10.874;2023-01-05T16:08:27;101357.41;;;11.90;75.39
46690;BME280;32423;45.398;10.874;2023-01-05T16:11:14;101365.72;;;12.08;73.64
46690;BME280;32423;45.398;10.874;2023-01-05T16:16:50;101370.56;;;12.33;71.40
46690;BME280;32423;45.398;10.874;2023-01-05T16:19:41;101383.59;;;12.44;71.18
46690;BME280;32423;45.398;10.874;2023-01-05T16:22:42;101377.25;;;12.49;70.37
46690;BME280;32423;45.398;10.874;2023-01-05T16:25:29;101375.97;;;12.55;69.82
46690;BME280;32423;45.398;10.874;2023-01-05T16:28:15;101374.44;;;12.63;69.18
46690;BME280;32423;45.398;10.874;2023-01-05T16:31:00;101381.97;;;12.66;68.86
46690;BME280;32423;45.398;10.874;2023-01-05T16:34:04;101376.72;;;12.69;68.46
46690;BME280;32423;45.398;10.874;2023-01-05T16:39:43;101379.47;;;12.78;68.12
46690;BME280;32423;45.398;10.874;2023-01-05T16:42:27;101391.50;;;12.77;67.55
46690;BME280;32423;45.398;10.874;2023-01-05T16:45:19;101389.59;;;12.77;67.32
46690;BME280;32423;45.398;10.874;2023-01-05T16:48:11;101395.56;;;12.79;66.70
46690;BME280;32423;45.398;10.874;2023-01-05T16:51:14;101383.84;;;12.79;66.65
46690;BME280;32423;45.398;10.874;2023-01-05T16:54:10;101383.63;;;12.75;66.73
46690;BME280;32423;45.398;10.874;2023-01-05T16:56:57;101389.28;;;12.79;66.41
46690;BME280;32423;45.398;10.874;2023-01-05T16:59:47;101396.34;;;12.80;66.28
46690;BME280;32423;45.398;10.874;2023-01-05T17:02:44;101402.13;;;12.78;66.06
46690;BME280;32423;45.398;10.874;2023-01-05T17:05:31;101396.16;;;12.76;66.23
46690;BME280;32423;45.398;10.874;2023-01-05T17:11:02;101396.47;;;12.75;66.25
46690;BME280;32423;45.398;10.874;2023-01-05T17:13:51;101405.47;;;12.75;66.49
46690;BME280;32423;45.398;10.874;2023-01-05T17:16:35;101405.00;;;12.73;66.44
46690;BME280;32423;45.398;10.874;2023-01-05T17:19:20;101415.91;;;12.73;66.31
46690;BME280;32423;45.398;10.874;2023-01-05T17:22:05;101421.66;;;12.72;66.18
46690;BME280;32423;45.398;10.874;2023-01-05T17:24:51;101418.94;;;12.72;65.95